sensor_id;sensor_type;location;lat;lon;timestamp;temperature;humidity
25939;DHT22;13739;51.172;4.466;2022-07-23T00:01:36;17.00;99.90
25939;DHT22;13739;51.172;4.466;2022-07-23T00:04:03;16.80;99.90
25939;DHT22;13739;51.172;4.466;2022-07-23T00:06:29;16.80;99.90
25939;DHT22;13739;51.172;4.466;2022-07-23T00:08:54;16.70;99.90
25939;DHT22;13739;51.172;4.466;2022-07-23T00:11:20;16.60;99.90
25939;DHT22;13739;51.172;4.466;2022-07-23T00:13:50;16.50;99.90
25939;DHT22;13739;51.172;4.466;2022-07-23T00:16:16;16.60;99.90
25939;DHT22;13739;51.172;4.466;2022-07-23T00:18:41;16.60;99.90
25939;DHT22;13739;51.172;4.466;2022-07-23T00:21:10;16.50;99.90
25939;DHT22;13739;51.172;4.466;2022-07-23T00:23:36;16.50;99.90
25939;DHT22;13739;51.172;4.466;2022-07-23T00:26:01;16.50;99.90
25939;DHT22;13739;51.172;4.466;2022-07-23T00:28:27;16.50;99.90
25939;DHT22;13739;51.172;4.466;2022-07-23T00:30:53;16.50;99.90
25939;DHT22;13739;51.172;4.466;2022-07-23T00:33:18;16.50;99.90
25939;DHT22;13739;51.172;4.466;2022-07-23T00:35:44;16.40;99.90
25939;DHT22;13739;51.172;4.466;2022-07-23T00:38:10;16.30;99.90
25939;DHT22;13739;51.172;4.466;2022-07-23T00:40:38;16.30;99.90
25939;DHT22;13739;51.172;4.466;2022-07-23T00:43:04;16.30;99.90
25939;DHT22;13739;51.172;4.466;2022-07-23T00:45:30;16.40;99.90
25939;DHT22;13739;51.172;4.466;2022-07-23T00:47:59;16.50;99.90
25939;DHT22;13739;51.172;4.466;2022-07-23T00:50:24;16.60;99.90
25939;DHT22;13739;51.172;4.466;2022-07-23T00:52:50;16.60;99.90
25939;DHT22;13739;51.172;4.466;2022-07-23T00:55:17;16.40;99.90
25939;DHT22;13739;51.172;4.466;2022-07-23T00:57:46;16.40;99.90
25939;DHT22;13739;51.172;4.466;2022-07-23T01:00:17;16.40;99.90
25939;DHT22;13739;51.172;4.466;2022-07-23T01:02:43;16.50;99.90
25939;DHT22;13739;51.172;4.466;2022-07-23T01:05:09;16.30;99.90
25939;DHT22;13739;51.172;4.466;2022-07-23T01:07:35;16.10;99.90
25939;DHT22;13739;51.172;4.466;2022-07-23T01:10:02;16.00;99.90
25939;DHT22;13739;51.172;4.466;2022-07-23T01:12:28;16.10;99.90
25939;DHT22;13739;51.172;4.466;2022-07-23T01:14:57;16.10;99.90
25939;DHT22;13739;51.172;4.466;2022-07-23T01:17:23;16.00;99.90
25939;DHT22;13739;51.172;4.466;2022-07-23T01:19:49;15.90;99.90
25939;DHT22;13739;51.172;4.466;2022-07-23T01:22:18;15.80;99.90
25939;DHT22;13739;51.172;4.466;2022-07-23T01:24:44;15.80;99.90
25939;DHT22;13739;51.172;4.466;2022-07-23T01:27:13;15.90;99.90
25939;DHT22;13739;51.172;4.466;2022-07-23T01:29:39;15.90;99.90
25939;DHT22;13739;51.172;4.466;2022-07-23T01:32:05;16.00;99.90
25939;DHT22;13739;51.172;4.466;2022-07-23T01:34:31;16.00;99.90
25939;DHT22;13739;51.172;4.466;2022-07-23T01:36:57;16.00;99.90
25939;DHT22;13739;51.172;4.466;2022-07-23T01:39:23;15.90;99.90
25939;DHT22;13739;51.172;4.466;2022-07-23T01:41:49;15.90;99.90
25939;DHT22;13739;51.172;4.466;2022-07-23T01:44:14;15.90;99.90
25939;DHT22;13739;51.172;4.466;2022-07-23T01:46:40;15.70;99.90
25939;DHT22;13739;51.172;4.466;2022-07-23T01:49:06;15.60;99.90
25939;DHT22;13739;51.172;4.466;2022-07-23T01:51:32;15.50;99.90
25939;DHT22;13739;51.172;4.466;2022-07-23T01:53:57;15.50;99.90
25939;DHT22;13739;51.172;4.466;2022-07-23T01:56:23;15.50;99.90
25939;DHT22;13739;51.172;4.466;2022-07-23T01:58:49;15.50;99.90
25939;DHT22;13739;51.172;4.466;2022-07-23T02:01:14;15.70;99.90
25939;DHT22;13739;51.172;4.466;2022-07-23T02:03:40;15.70;99.90
25939;DHT22;13739;51.172;4.466;2022-07-23T02:06:06;15.80;99.90
25939;DHT22;13739;51.172;4.466;2022-07-23T02:08:32;15.80;99.90
25939;DHT22;13739;51.172;4.466;2022-07-23T02:10:57;15.80;99.90
25939;DHT22;13739;51.172;4.466;2022-07-23T02:13:23;15.80;99.90
25939;DHT22;13739;51.172;4.466;2022-07-23T02:15:48;15.60;99.90
25939;DHT22;13739;51.172;4.466;2022-07-23T02:18:14;15.50;99.90
25939;DHT22;13739;51.172;4.466;2022-07-23T02:20:40;15.40;99.90
25939;DHT22;13739;51.172;4.466;2022-07-23T02:23:06;15.60;99.90
25939;DHT22;13739;51.172;4.466;2022-07-23T02:25:33;15.70;99.90
25939;DHT22;13739;51.172;4.466;2022-07-23T02:27:59;15.80;99.90
25939;DHT22;13739;51.172;4.466;2022-07-23T02:30:24;15.80;99.90
25939;DHT22;13739;51.172;4.466;2022-07-23T02:32:50;15.90;99.90
25939;DHT22;13739;51.172;4.466;2022-07-23T02:35:16;15.60;99.90
25939;DHT22;13739;51.172;4.466;2022-07-23T02:37:41;15.60;99.90
25939;DHT22;13739;51.172;4.466;2022-07-23T02:40:07;15.60;99.90
25939;DHT22;13739;51.172;4.466;2022-07-23T02:42:33;15.70;99.90
25939;DHT22;13739;51.172;4.466;2022-07-23T02:44:59;15.60;99.90
25939;DHT22;13739;51.172;4.466;2022-07-23T02:47:24;15.40;99.90
25939;DHT22;13739;51.172;4.466;2022-07-23T02:49:50;15.30;99.90
25939;DHT22;13739;51.172;4.466;2022-07-23T02:52:15;15.40;99.90
25939;DHT22;13739;51.172;4.466;2022-07-23T02:54:41;15.50;99.90
25939;DHT22;13739;51.172;4.466;2022-07-23T02:57:07;15.40;99.90
25939;DHT22;13739;51.172;4.466;2022-07-23T02:59:36;15.20;99.90
25939;DHT22;13739;51.172;4.466;2022-07-23T03:02:02;15.20;99.90
25939;DHT22;13739;51.172;4.466;2022-07-23T03:04:27;15.10;99.90
25939;DHT22;13739;51.172;4.466;2022-07-23T03:06:53;15.20;99.90
25939;DHT22;13739;51.172;4.466;2022-07-23T03:09:19;15.30;99.90
25939;DHT22;13739;51.172;4.466;2022-07-23T03:11:48;15.40;99.90
25939;DHT22;13739;51.172;4.466;2022-07-23T03:14:13;15.50;99.90
25939;DHT22;13739;51.172;4.466;2022-07-23T03:16:41;15.50;99.90
25939;DHT22;13739;51.172;4.466;2022-07-23T03:19:07;15.70;99.90
25939;DHT22;13739;51.172;4.466;2022-07-23T03:21:33;15.60;99.90
25939;DHT22;13739;51.172;4.466;2022-07-23T03:24:01;15.60;99.90
25939;DHT22;13739;51.172;4.466;2022-07-23T03:26:27;15.50;99.90
25939;DHT22;13739;51.172;4.466;2022-07-23T03:28:53;15.50;99.90
25939;DHT22;13739;51.172;4.466;2022-07-23T03:31:18;15.50;99.90
25939;DHT22;13739;51.172;4.466;2022-07-23T03:33:44;15.40;99.90
25939;DHT22;13739;51.172;4.466;2022-07-23T03:36:10;15.30;99.90
25939;DHT22;13739;51.172;4.466;2022-07-23T03:38:35;15.20;99.90
25939;DHT22;13739;51.172;4.466;2022-07-23T03:41:01;15.10;99.90
25939;DHT22;13739;51.172;4.466;2022-07-23T03:43:27;15.10;99.90
25939;DHT22;13739;51.172;4.466;2022-07-23T03:45:52;15.00;99.90
25939;DHT22;13739;51.172;4.466;2022-07-23T03:48:18;14.90;99.90
25939;DHT22;13739;51.172;4.466;2022-07-23T03:50:43;14.90;99.90
25939;DHT22;13739;51.172;4.466;2022-07-23T03:53:09;14.80;99.90
25939;DHT22;13739;51.172;4.466;2022-07-23T03:55:35;14.90;99.90
25939;DHT22;13739;51.172;4.466;2022-07-23T03:58:01;14.90;99.90
25939;DHT22;13739;51.172;4.466;2022-07-23T04:00:28;15.10;99.90
25939;DHT22;13739;51.172;4.466;2022-07-23T04:02:54;15.20;99.90
25939;DHT22;13739;51.172;4.466;2022-07-23T04:05:19;15.00;99.90
25939;DHT22;13739;51.172;4.466;2022-07-23T04:07:45;15.00;99.90
25939;DHT22;13739;51.172;4.466;2022-07-23T04:10:10;15.20;99.90
25939;DHT22;13739;51.172;4.466;2022-07-23T04:12:36;15.10;99.90
25939;DHT22;13739;51.172;4.466;2022-07-23T04:15:02;15.10;99.90
25939;DHT22;13739;51.172;4.466;2022-07-23T04:17:28;15.10;99.90
25939;DHT22;13739;51.172;4.466;2022-07-23T04:19:54;15.00;99.90
25939;DHT22;13739;51.172;4.466;2022-07-23T04:22:19;15.00;99.90
25939;DHT22;13739;51.172;4.466;2022-07-23T04:24:45;15.10;99.90
25939;DHT22;13739;51.172;4.466;2022-07-23T04:27:11;15.20;99.90
25939;DHT22;13739;51.172;4.466;2022-07-23T04:29:37;15.20;99.90
25939;DHT22;13739;51.172;4.466;2022-07-23T04:32:02;15.20;99.90
25939;DHT22;13739;51.172;4.466;2022-07-23T04:34:28;15.00;99.90
25939;DHT22;13739;51.172;4.466;2022-07-23T04:36:54;15.10;99.90
25939;DHT22;13739;51.172;4.466;2022-07-23T04:39:20;15.40;99.90
25939;DHT22;13739;51.172;4.466;2022-07-23T04:41:45;15.50;99.90
25939;DHT22;13739;51.172;4.466;2022-07-23T04:44:11;15.40;99.90
25939;DHT22;13739;51.172;4.466;2022-07-23T04:46:37;15.40;99.90
25939;DHT22;13739;51.172;4.466;2022-07-23T04:49:02;15.30;99.90
25939;DHT22;13739;51.172;4.466;2022-07-23T04:51:28;15.20;99.90
25939;DHT22;13739;51.172;4.466;2022-07-23T04:53:54;15.20;99.90
25939;DHT22;13739;51.172;4.466;2022-07-23T04:56:20;15.40;99.90
25939;DHT22;13739;51.172;4.466;2022-07-23T04:58:45;15.40;99.90
25939;DHT22;13739;51.172;4.466;2022-07-23T05:01:13;15.40;99.90
25939;DHT22;13739;51.172;4.466;2022-07-23T05:03:39;15.40;99.90
25939;DHT22;13739;51.172;4.466;2022-07-23T05:06:07;15.60;99.90
25939;DHT22;13739;51.172;4.466;2022-07-23T05:08:32;15.70;99.90
25939;DHT22;13739;51.172;4.466;2022-07-23T05:10:58;15.90;99.90
25939;DHT22;13739;51.172;4.466;2022-07-23T05:13:24;16.00;99.90
25939;DHT22;13739;51.172;4.466;2022-07-23T05:15:52;16.00;99.90
25939;DHT22;13739;51.172;4.466;2022-07-23T05:18:17;16.20;99.90
25939;DHT22;13739;51.172;4.466;2022-07-23T05:20:43;16.50;99.90
25939;DHT22;13739;51.172;4.466;2022-07-23T05:23:09;16.50;99.90
25939;DHT22;13739;51.172;4.466;2022-07-23T05:25:35;16.80;99.90
25939;DHT22;13739;51.172;4.466;2022-07-23T05:28:01;17.00;99.90
25939;DHT22;13739;51.172;4.466;2022-07-23T05:30:26;17.00;99.90
25939;DHT22;13739;51.172;4.466;2022-07-23T05:32:52;17.00;99.90
25939;DHT22;13739;51.172;4.466;2022-07-23T05:35:18;17.10;99.90
25939;DHT22;13739;51.172;4.466;2022-07-23T05:37:43;17.30;99.90
25939;DHT22;13739;51.172;4.466;2022-07-23T05:40:10;17.20;99.90
25939;DHT22;13739;51.172;4.466;2022-07-23T05:42:37;17.30;99.90
25939;DHT22;13739;51.172;4.466;2022-07-23T05:45:03;17.30;99.90
25939;DHT22;13739;51.172;4.466;2022-07-23T05:47:38;17.30;99.90
25939;DHT22;13739;51.172;4.466;2022-07-23T05:50:04;17.20;99.90
25939;DHT22;13739;51.172;4.466;2022-07-23T05:52:29;17.30;99.90
25939;DHT22;13739;51.172;4.466;2022-07-23T05:54:55;17.30;99.90
25939;DHT22;13739;51.172;4.466;2022-07-23T05:57:21;17.30;99.90
25939;DHT22;13739;51.172;4.466;2022-07-23T05:59:46;17.20;99.90
25939;DHT22;13739;51.172;4.466;2022-07-23T06:02:12;17.20;99.90
25939;DHT22;13739;51.172;4.466;2022-07-23T06:04:37;17.30;99.90
25939;DHT22;13739;51.172;4.466;2022-07-23T06:07:03;17.30;99.90
25939;DHT22;13739;51.172;4.466;2022-07-23T06:09:29;17.50;99.90
25939;DHT22;13739;51.172;4.466;2022-07-23T06:11:54;17.50;99.90
25939;DHT22;13739;51.172;4.466;2022-07-23T06:14:23;17.60;99.90
25939;DHT22;13739;51.172;4.466;2022-07-23T06:16:49;17.70;99.90
25939;DHT22;13739;51.172;4.466;2022-07-23T06:19:15;17.70;99.90
25939;DHT22;13739;51.172;4.466;2022-07-23T06:21:40;17.70;99.90
25939;DHT22;13739;51.172;4.466;2022-07-23T06:24:06;17.90;99.90
25939;DHT22;13739;51.172;4.466;2022-07-23T06:26:32;17.90;99.90
25939;DHT22;13739;51.172;4.466;2022-07-23T06:28:57;17.80;99.90
25939;DHT22;13739;51.172;4.466;2022-07-23T06:31:23;17.90;99.90
25939;DHT22;13739;51.172;4.466;2022-07-23T06:33:49;17.80;99.90
25939;DHT22;13739;51.172;4.466;2022-07-23T06:36:15;17.80;99.90
25939;DHT22;13739;51.172;4.466;2022-07-23T06:38:40;17.90;99.90
25939;DHT22;13739;51.172;4.466;2022-07-23T06:41:08;17.90;99.90
25939;DHT22;13739;51.172;4.466;2022-07-23T06:43:33;18.00;99.90
25939;DHT22;13739;51.172;4.466;2022-07-23T06:45:59;18.00;99.90
25939;DHT22;13739;51.172;4.466;2022-07-23T06:48:25;18.20;99.90
25939;DHT22;13739;51.172;4.466;2022-07-23T06:50:50;18.40;99.90
25939;DHT22;13739;51.172;4.466;2022-07-23T06:53:18;18.40;99.90
25939;DHT22;13739;51.172;4.466;2022-07-23T06:55:43;18.60;99.90
25939;DHT22;13739;51.172;4.466;2022-07-23T06:58:09;18.60;99.90
25939;DHT22;13739;51.172;4.466;2022-07-23T07:00:35;18.70;99.90
25939;DHT22;13739;51.172;4.466;2022-07-23T07:03:04;18.60;99.90
25939;DHT22;13739;51.172;4.466;2022-07-23T07:05:29;18.60;99.90
25939;DHT22;13739;51.172;4.466;2022-07-23T07:07:55;18.50;99.90
25939;DHT22;13739;51.172;4.466;2022-07-23T07:10:21;18.60;99.90
25939;DHT22;13739;51.172;4.466;2022-07-23T07:12:46;18.60;99.90
25939;DHT22;13739;51.172;4.466;2022-07-23T07:15:13;18.60;99.90
25939;DHT22;13739;51.172;4.466;2022-07-23T07:17:38;18.60;99.90
25939;DHT22;13739;51.172;4.466;2022-07-23T07:20:05;18.90;99.90
25939;DHT22;13739;51.172;4.466;2022-07-23T07:22:31;18.70;99.90
25939;DHT22;13739;51.172;4.466;2022-07-23T07:24:56;18.70;99.90
25939;DHT22;13739;51.172;4.466;2022-07-23T07:27:22;18.80;99.90
25939;DHT22;13739;51.172;4.466;2022-07-23T07:29:48;19.10;99.90
25939;DHT22;13739;51.172;4.466;2022-07-23T07:32:13;19.10;99.90
25939;DHT22;13739;51.172;4.466;2022-07-23T07:34:39;19.10;99.90
25939;DHT22;13739;51.172;4.466;2022-07-23T07:37:04;19.10;99.90
25939;DHT22;13739;51.172;4.466;2022-07-23T07:39:30;19.30;99.90
25939;DHT22;13739;51.172;4.466;2022-07-23T07:41:56;19.40;99.90
25939;DHT22;13739;51.172;4.466;2022-07-23T07:44:21;19.60;99.90
25939;DHT22;13739;51.172;4.466;2022-07-23T07:46:47;19.60;99.90
25939;DHT22;13739;51.172;4.466;2022-07-23T07:49:13;19.50;99.90
25939;DHT22;13739;51.172;4.466;2022-07-23T07:51:38;19.60;99.90
25939;DHT22;13739;51.172;4.466;2022-07-23T07:54:04;19.80;99.90
25939;DHT22;13739;51.172;4.466;2022-07-23T07:56:29;19.90;99.90
25939;DHT22;13739;51.172;4.466;2022-07-23T07:58:55;20.00;99.90
25939;DHT22;13739;51.172;4.466;2022-07-23T08:01:21;20.10;99.90
25939;DHT22;13739;51.172;4.466;2022-07-23T08:03:46;20.10;99.90
25939;DHT22;13739;51.172;4.466;2022-07-23T08:06:12;20.00;99.90
25939;DHT22;13739;51.172;4.466;2022-07-23T08:08:38;19.90;99.90
25939;DHT22;13739;51.172;4.466;2022-07-23T08:11:03;20.10;99.90
25939;DHT22;13739;51.172;4.466;2022-07-23T08:13:29;20.10;99.90
25939;DHT22;13739;51.172;4.466;2022-07-23T08:15:55;20.20;99.90
25939;DHT22;13739;51.172;4.466;2022-07-23T08:18:20;20.20;99.90
25939;DHT22;13739;51.172;4.466;2022-07-23T08:20:46;20.20;99.90
25939;DHT22;13739;51.172;4.466;2022-07-23T08:23:12;20.30;99.90
25939;DHT22;13739;51.172;4.466;2022-07-23T08:25:41;20.40;99.90
25939;DHT22;13739;51.172;4.466;2022-07-23T08:28:10;20.20;99.90
25939;DHT22;13739;51.172;4.466;2022-07-23T08:30:37;20.30;99.90
25939;DHT22;13739;51.172;4.466;2022-07-23T08:33:08;20.30;99.90
25939;DHT22;13739;51.172;4.466;2022-07-23T08:35:45;20.60;99.90
25939;DHT22;13739;51.172;4.466;2022-07-23T08:38:12;20.60;99.90
25939;DHT22;13739;51.172;4.466;2022-07-23T08:40:41;20.40;99.90
25939;DHT22;13739;51.172;4.466;2022-07-23T08:43:09;20.50;99.90
25939;DHT22;13739;51.172;4.466;2022-07-23T08:45:38;20.60;99.90
25939;DHT22;13739;51.172;4.466;2022-07-23T08:48:06;20.80;99.90
25939;DHT22;13739;51.172;4.466;2022-07-23T08:50:32;20.70;99.90
25939;DHT22;13739;51.172;4.466;2022-07-23T08:53:00;20.80;99.90
25939;DHT22;13739;51.172;4.466;2022-07-23T08:55:28;21.00;99.90
25939;DHT22;13739;51.172;4.466;2022-07-23T08:57:53;20.90;99.90
25939;DHT22;13739;51.172;4.466;2022-07-23T09:00:20;20.90;99.90
25939;DHT22;13739;51.172;4.466;2022-07-23T09:02:47;21.10;99.90
25939;DHT22;13739;51.172;4.466;2022-07-23T09:05:14;21.10;99.90
25939;DHT22;13739;51.172;4.466;2022-07-23T09:08:03;21.10;99.90
25939;DHT22;13739;51.172;4.466;2022-07-23T09:10:29;21.10;99.90
25939;DHT22;13739;51.172;4.466;2022-07-23T09:12:55;21.20;99.90
25939;DHT22;13739;51.172;4.466;2022-07-23T09:15:21;21.20;99.90
25939;DHT22;13739;51.172;4.466;2022-07-23T09:17:46;21.10;99.90
25939;DHT22;13739;51.172;4.466;2022-07-23T09:20:14;21.20;99.90
25939;DHT22;13739;51.172;4.466;2022-07-23T09:22:45;21.30;99.90
25939;DHT22;13739;51.172;4.466;2022-07-23T09:25:16;21.40;99.90
25939;DHT22;13739;51.172;4.466;2022-07-23T09:27:54;21.50;99.90
25939;DHT22;13739;51.172;4.466;2022-07-23T09:30:27;21.50;99.90
25939;DHT22;13739;51.172;4.466;2022-07-23T09:33:10;21.60;99.90
25939;DHT22;13739;51.172;4.466;2022-07-23T09:35:55;21.60;99.90
25939;DHT22;13739;51.172;4.466;2022-07-23T09:38:23;21.70;99.90
25939;DHT22;13739;51.172;4.466;2022-07-23T09:41:06;21.80;99.90
25939;DHT22;13739;51.172;4.466;2022-07-23T09:43:32;22.10;99.90
25939;DHT22;13739;51.172;4.466;2022-07-23T09:46:26;22.20;99.90
25939;DHT22;13739;51.172;4.466;2022-07-23T09:48:52;22.30;99.90
25939;DHT22;13739;51.172;4.466;2022-07-23T09:51:19;22.40;99.90
25939;DHT22;13739;51.172;4.466;2022-07-23T09:54:03;22.40;99.90
25939;DHT22;13739;51.172;4.466;2022-07-23T09:56:29;22.40;99.90
25939;DHT22;13739;51.172;4.466;2022-07-23T09:58:55;22.40;99.90
25939;DHT22;13739;51.172;4.466;2022-07-23T10:01:36;22.60;99.90
25939;DHT22;13739;51.172;4.466;2022-07-23T10:04:03;22.80;99.80
25939;DHT22;13739;51.172;4.466;2022-07-23T10:06:29;22.80;99.90
25939;DHT22;13739;51.172;4.466;2022-07-23T10:08:58;22.80;99.50
25939;DHT22;13739;51.172;4.466;2022-07-23T10:11:25;22.80;99.90
25939;DHT22;13739;51.172;4.466;2022-07-23T10:13:53;22.90;99.80
25939;DHT22;13739;51.172;4.466;2022-07-23T10:16:21;22.90;99.40
25939;DHT22;13739;51.172;4.466;2022-07-23T10:18:47;22.90;98.70
25939;DHT22;13739;51.172;4.466;2022-07-23T10:21:21;23.00;98.60
25939;DHT22;13739;51.172;4.466;2022-07-23T10:26:57;23.30;97.60
25939;DHT22;13739;51.172;4.466;2022-07-23T10:30:02;22.90;98.10
25939;DHT22;13739;51.172;4.466;2022-07-23T10:35:22;22.70;98.60
25939;DHT22;13739;51.172;4.466;2022-07-23T10:37:56;22.40;98.30
25939;DHT22;13739;51.172;4.466;2022-07-23T10:40:25;22.40;98.90
25939;DHT22;13739;51.172;4.466;2022-07-23T10:42:52;22.30;98.10
25939;DHT22;13739;51.172;4.466;2022-07-23T10:45:26;22.50;97.20
25939;DHT22;13739;51.172;4.466;2022-07-23T10:47:53;22.60;97.20
25939;DHT22;13739;51.172;4.466;2022-07-23T10:53:16;23.00;97.00
25939;DHT22;13739;51.172;4.466;2022-07-23T10:55:51;23.00;95.40
25939;DHT22;13739;51.172;4.466;2022-07-23T10:58:21;23.00;95.70
25939;DHT22;13739;51.172;4.466;2022-07-23T11:00:47;23.00;95.90
25939;DHT22;13739;51.172;4.466;2022-07-23T11:03:34;23.30;95.10
25939;DHT22;13739;51.172;4.466;2022-07-23T11:06:03;23.50;95.40
25939;DHT22;13739;51.172;4.466;2022-07-23T11:08:29;23.30;95.50
25939;DHT22;13739;51.172;4.466;2022-07-23T11:13:32;23.80;95.00
25939;DHT22;13739;51.172;4.466;2022-07-23T11:18:54;23.80;94.10
25939;DHT22;13739;51.172;4.466;2022-07-23T11:24:18;23.50;93.80
25939;DHT22;13739;51.172;4.466;2022-07-23T11:26:46;23.70;95.10
25939;DHT22;13739;51.172;4.466;2022-07-23T11:32:02;23.80;94.10
25939;DHT22;13739;51.172;4.466;2022-07-23T11:34:35;23.90;94.80
25939;DHT22;13739;51.172;4.466;2022-07-23T11:37:09;24.00;93.80
25939;DHT22;13739;51.172;4.466;2022-07-23T11:39:35;24.20;93.20
25939;DHT22;13739;51.172;4.466;2022-07-23T11:42:03;24.30;91.90
25939;DHT22;13739;51.172;4.466;2022-07-23T11:44:37;24.40;92.20
25939;DHT22;13739;51.172;4.466;2022-07-23T11:47:08;24.30;91.80
25939;DHT22;13739;51.172;4.466;2022-07-23T11:49:34;24.20;91.30
25939;DHT22;13739;51.172;4.466;2022-07-23T11:52:07;24.30;91.90
25939;DHT22;13739;51.172;4.466;2022-07-23T11:54:35;24.50;91.80
25939;DHT22;13739;51.172;4.466;2022-07-23T11:57:02;24.40;91.70
25939;DHT22;13739;51.172;4.466;2022-07-23T11:59:32;24.60;91.90
25939;DHT22;13739;51.172;4.466;2022-07-23T12:02:00;24.80;90.20
25939;DHT22;13739;51.172;4.466;2022-07-23T12:07:02;25.00;91.10
25939;DHT22;13739;51.172;4.466;2022-07-23T12:09:28;25.00;90.40
25939;DHT22;13739;51.172;4.466;2022-07-23T12:12:00;24.80;90.40
25939;DHT22;13739;51.172;4.466;2022-07-23T12:14:27;24.70;90.50
25939;DHT22;13739;51.172;4.466;2022-07-23T12:17:19;24.80;91.70
25939;DHT22;13739;51.172;4.466;2022-07-23T12:19:46;25.00;90.70
25939;DHT22;13739;51.172;4.466;2022-07-23T12:22:12;24.90;90.90
25939;DHT22;13739;51.172;4.466;2022-07-23T12:24:59;24.70;91.00
25939;DHT22;13739;51.172;4.466;2022-07-23T12:27:26;24.90;90.80
25939;DHT22;13739;51.172;4.466;2022-07-23T12:29:52;25.30;90.50
25939;DHT22;13739;51.172;4.466;2022-07-23T12:32:24;25.30;88.80
25939;DHT22;13739;51.172;4.466;2022-07-23T12:35:11;25.40;89.70
25939;DHT22;13739;51.172;4.466;2022-07-23T12:37:39;25.40;88.60
25939;DHT22;13739;51.172;4.466;2022-07-23T12:40:19;25.40;90.00
25939;DHT22;13739;51.172;4.466;2022-07-23T12:42:47;25.60;87.70
25939;DHT22;13739;51.172;4.466;2022-07-23T12:45:13;25.70;88.00
25939;DHT22;13739;51.172;4.466;2022-07-23T12:48:04;25.60;87.20
25939;DHT22;13739;51.172;4.466;2022-07-23T12:55:58;25.70;88.10
25939;DHT22;13739;51.172;4.466;2022-07-23T12:58:25;25.80;87.90
25939;DHT22;13739;51.172;4.466;2022-07-23T13:00:59;25.80;85.90
25939;DHT22;13739;51.172;4.466;2022-07-23T13:03:31;25.80;86.50
25939;DHT22;13739;51.172;4.466;2022-07-23T13:05:58;26.00;87.50
25939;DHT22;13739;51.172;4.466;2022-07-23T13:08:26;26.00;86.40
25939;DHT22;13739;51.172;4.466;2022-07-23T13:10:52;26.20;85.80
25939;DHT22;13739;51.172;4.466;2022-07-23T13:13:23;26.30;85.30
25939;DHT22;13739;51.172;4.466;2022-07-23T13:15:50;26.20;81.20
25939;DHT22;13739;51.172;4.466;2022-07-23T13:18:16;26.10;81.70
25939;DHT22;13739;51.172;4.466;2022-07-23T13:20:43;26.30;82.40
25939;DHT22;13739;51.172;4.466;2022-07-23T13:23:09;26.60;83.00
25939;DHT22;13739;51.172;4.466;2022-07-23T13:25:34;26.70;81.20
25939;DHT22;13739;51.172;4.466;2022-07-23T13:28:00;27.00;82.00
25939;DHT22;13739;51.172;4.466;2022-07-23T13:30:26;27.30;80.90
25939;DHT22;13739;51.172;4.466;2022-07-23T13:32:52;27.60;80.30
25939;DHT22;13739;51.172;4.466;2022-07-23T13:35:17;27.60;80.70
25939;DHT22;13739;51.172;4.466;2022-07-23T13:37:43;27.50;79.10
25939;DHT22;13739;51.172;4.466;2022-07-23T13:40:09;27.30;79.50
25939;DHT22;13739;51.172;4.466;2022-07-23T13:42:36;27.40;80.00
25939;DHT22;13739;51.172;4.466;2022-07-23T13:45:03;27.40;79.20
25939;DHT22;13739;51.172;4.466;2022-07-23T13:47:29;27.60;78.30
25939;DHT22;13739;51.172;4.466;2022-07-23T13:49:54;27.70;77.90
25939;DHT22;13739;51.172;4.466;2022-07-23T13:52:20;27.70;77.50
25939;DHT22;13739;51.172;4.466;2022-07-23T13:54:46;27.70;78.00
25939;DHT22;13739;51.172;4.466;2022-07-23T13:57:11;27.70;76.90
25939;DHT22;13739;51.172;4.466;2022-07-23T13:59:37;27.60;78.50
25939;DHT22;13739;51.172;4.466;2022-07-23T14:02:03;27.80;77.20
25939;DHT22;13739;51.172;4.466;2022-07-23T14:04:29;27.70;76.50
25939;DHT22;13739;51.172;4.466;2022-07-23T14:06:55;28.00;75.20
25939;DHT22;13739;51.172;4.466;2022-07-23T14:09:21;27.90;75.90
25939;DHT22;13739;51.172;4.466;2022-07-23T14:11:47;28.00;75.70
25939;DHT22;13739;51.172;4.466;2022-07-23T14:14:13;28.10;75.40
25939;DHT22;13739;51.172;4.466;2022-07-23T14:16:38;28.00;75.60
25939;DHT22;13739;51.172;4.466;2022-07-23T14:19:04;28.10;75.70
25939;DHT22;13739;51.172;4.466;2022-07-23T14:21:30;28.50;74.20
25939;DHT22;13739;51.172;4.466;2022-07-23T14:23:55;27.70;74.30
25939;DHT22;13739;51.172;4.466;2022-07-23T14:26:21;27.60;74.70
25939;DHT22;13739;51.172;4.466;2022-07-23T14:28:47;27.60;74.80
25939;DHT22;13739;51.172;4.466;2022-07-23T14:31:12;27.60;74.70
25939;DHT22;13739;51.172;4.466;2022-07-23T14:33:38;27.70;74.40
25939;DHT22;13739;51.172;4.466;2022-07-23T14:36:04;27.80;77.70
25939;DHT22;13739;51.172;4.466;2022-07-23T14:38:29;27.70;76.30
25939;DHT22;13739;51.172;4.466;2022-07-23T14:40:56;27.60;76.10
25939;DHT22;13739;51.172;4.466;2022-07-23T14:43:22;27.80;75.60
25939;DHT22;13739;51.172;4.466;2022-07-23T14:45:48;27.70;75.60
25939;DHT22;13739;51.172;4.466;2022-07-23T14:48:14;27.50;76.40
25939;DHT22;13739;51.172;4.466;2022-07-23T14:50:40;27.70;75.80
25939;DHT22;13739;51.172;4.466;2022-07-23T14:53:05;28.00;75.90
25939;DHT22;13739;51.172;4.466;2022-07-23T14:55:32;27.90;76.00
25939;DHT22;13739;51.172;4.466;2022-07-23T14:57:58;28.20;75.70
25939;DHT22;13739;51.172;4.466;2022-07-23T15:00:23;28.50;76.80
25939;DHT22;13739;51.172;4.466;2022-07-23T15:02:49;28.60;75.00
25939;DHT22;13739;51.172;4.466;2022-07-23T15:05:15;28.40;74.60
25939;DHT22;13739;51.172;4.466;2022-07-23T15:07:40;28.70;74.60
25939;DHT22;13739;51.172;4.466;2022-07-23T15:10:06;28.20;74.70
25939;DHT22;13739;51.172;4.466;2022-07-23T15:12:32;28.20;76.60
25939;DHT22;13739;51.172;4.466;2022-07-23T15:14:58;28.70;75.90
25939;DHT22;13739;51.172;4.466;2022-07-23T15:17:23;28.80;73.60
25939;DHT22;13739;51.172;4.466;2022-07-23T15:19:50;29.00;74.10
25939;DHT22;13739;51.172;4.466;2022-07-23T15:22:16;29.90;71.20
25939;DHT22;13739;51.172;4.466;2022-07-23T15:24:43;30.70;70.00
25939;DHT22;13739;51.172;4.466;2022-07-23T15:27:09;30.60;69.00
25939;DHT22;13739;51.172;4.466;2022-07-23T15:29:35;31.20;68.60
25939;DHT22;13739;51.172;4.466;2022-07-23T15:32:00;31.70;67.40
25939;DHT22;13739;51.172;4.466;2022-07-23T15:34:26;31.70;67.20
25939;DHT22;13739;51.172;4.466;2022-07-23T15:36:52;31.80;65.40
25939;DHT22;13739;51.172;4.466;2022-07-23T15:39:18;31.90;65.80
25939;DHT22;13739;51.172;4.466;2022-07-23T15:41:44;32.40;63.50
25939;DHT22;13739;51.172;4.466;2022-07-23T15:44:09;32.50;63.60
25939;DHT22;13739;51.172;4.466;2022-07-23T15:46:35;33.20;62.80
25939;DHT22;13739;51.172;4.466;2022-07-23T15:49:01;32.90;62.10
25939;DHT22;13739;51.172;4.466;2022-07-23T15:51:27;32.80;61.10
25939;DHT22;13739;51.172;4.466;2022-07-23T15:53:54;32.80;60.90
25939;DHT22;13739;51.172;4.466;2022-07-23T15:56:19;32.70;60.10
25939;DHT22;13739;51.172;4.466;2022-07-23T15:58:45;33.10;60.00